CheckWX is a tool to help pilots better visualize weather data.  It is not intended as a substitute for an official pre-flight weather briefing.

18:56:09 UTC

KLAX METAR
Los Angeles International Airport
Los Angeles, California, USA
Current

1 hour ago

KLAX 161753Z 18003KT 5SM HZ FEW003 SCT220 SCT280 16/11 A3014 RMK AO2 SLP205 VIS S 2 1/2 T01610106 10167 20111 58002 $
Observed
Feb-16 @ 17:53 UTC
Wind
  • 180° at 3 KTS
Visibility
5 SM
Flight Rules
MVFR
Conditions
Haze
Cloud Levels
  • Few at 300' AGL
  • Scattered at 22,000' AGL
  • Scattered at 28,000' AGL
Temperature
16°C / 61°F
Dewpoint
11°C / 52°F
Humidity
72%
Altimeter
30.14" Hg
Pressure
1020.62 hPa
Previous

2 hours ago

KLAX 161653Z 13003KT 4SM HZ FEW003 FEW230 14/09 A3016 RMK AO2 SLP211 VIS S 2 T01390094 $
Observed
Feb-16 @ 16:53 UTC
Wind
  • 130° at 3 KTS
Visibility
4 SM
Flight Rules
MVFR
Conditions
Haze
Cloud Levels
  • Few at 300' AGL
  • Few at 23,000' AGL
Temperature
14°C / 57°F
Dewpoint
C / 48°F
Humidity
72%
Altimeter
30.16" Hg
Pressure
1021.32 hPa
Previous

3 hours ago

KLAX 161607Z 07004KT 4SM BR FEW003 SCT008 SCT230 12/11 A3016 RMK AO2 VIS S-SW 1 3/4 T01220106 $
Observed
Feb-16 @ 16:07 UTC
Wind
  • 070° at 4 KTS
Visibility
4 SM
Flight Rules
MVFR
Conditions
Mist
Cloud Levels
  • Few at 300' AGL
  • Scattered at 800' AGL
  • Scattered at 23,000' AGL
Temperature
12°C / 54°F
Dewpoint
11°C / 52°F
Humidity
94%
Altimeter
30.16" Hg
Pressure
1021.32 hPa